createdAt,value
2022-09-05T00:00:14.807Z,19.50
2022-09-05T00:03:33.754Z,19.53
2022-09-05T00:06:09.141Z,19.51
2022-09-05T00:08:52.637Z,19.53
2022-09-05T00:11:43.831Z,19.48
2022-09-05T00:15:15.083Z,19.46
2022-09-05T00:18:09.834Z,19.38
2022-09-05T00:24:22.999Z,19.47
2022-09-05T00:24:32.507Z,19.49
2022-09-05T00:27:13.743Z,19.46
2022-09-05T00:31:05.622Z,19.35
2022-09-05T00:32:58.738Z,19.40
2022-09-05T00:35:30.728Z,19.35
2022-09-05T00:37:58.192Z,19.25
2022-09-05T00:40:30.185Z,19.23
2022-09-05T00:43:14.920Z,19.20
2022-09-05T00:45:47.608Z,19.25
2022-09-05T00:48:29.414Z,19.17
2022-09-05T00:51:11.882Z,19.14
2022-09-05T00:54:26.423Z,19.11
2022-09-05T00:57:28.244Z,19.15
2022-09-05T01:00:23.886Z,19.16
2022-09-05T01:02:54.204Z,19.10
2022-09-05T01:05:45.329Z,19.17
2022-09-05T01:08:47.136Z,19.16
2022-09-05T01:11:38.558Z,19.11
2022-09-05T01:14:23.968Z,19.11
2022-09-05T01:17:12.800Z,19.07
2022-09-05T01:20:20.022Z,19.07
2022-09-05T01:23:15.441Z,19.09
2022-09-05T01:26:17.674Z,19.04
2022-09-05T01:29:15.153Z,19.03
2022-09-05T01:32:15.475Z,19.03
2022-09-05T01:34:42.988Z,19.08
2022-09-05T01:37:32.658Z,18.96
2022-09-05T01:40:15.140Z,18.94
2022-09-05T01:42:56.858Z,18.94
2022-09-05T01:45:30.772Z,18.94
2022-09-05T01:48:13.353Z,18.92
2022-09-05T01:50:56.136Z,18.86
2022-09-05T01:53:51.435Z,18.89
2022-09-05T01:56:33.731Z,18.83
2022-09-05T01:59:00.930Z,18.80
2022-09-05T02:01:46.235Z,18.69
2022-09-05T02:04:41.346Z,18.68
2022-09-05T02:07:47.635Z,18.73
2022-09-05T02:10:31.824Z,18.80
2022-09-05T02:13:20.805Z,18.82
2022-09-05T02:15:59.789Z,18.84
2022-09-05T02:18:45.210Z,18.74
2022-09-05T02:21:23.733Z,18.64
2022-09-05T02:24:20.366Z,18.61
2022-09-05T02:26:58.343Z,18.55
2022-09-05T02:29:48.275Z,18.56
2022-09-05T02:32:24.384Z,18.56
2022-09-05T02:35:01.486Z,18.58
2022-09-05T02:38:33.108Z,18.49
2022-09-05T02:45:03.485Z,18.55
2022-09-05T02:45:07.731Z,18.47
2022-09-05T02:46:38.749Z,18.48
2022-09-05T02:55:02.021Z,18.45
2022-09-05T02:57:32.897Z,18.38
2022-09-05T02:57:39.468Z,18.44
2022-09-05T02:58:43.007Z,18.48
2022-09-05T03:01:36.189Z,18.39
2022-09-05T03:04:25.585Z,18.44
2022-09-05T03:07:20.856Z,18.43
2022-09-05T03:10:14.149Z,18.33
2022-09-05T03:13:11.103Z,18.25
2022-09-05T03:15:44.604Z,18.22
2022-09-05T03:18:35.506Z,18.15
2022-09-05T03:21:24.880Z,18.25
2022-09-05T03:24:11.248Z,18.12
2022-09-05T03:27:16.489Z,18.13
2022-09-05T03:30:03.766Z,18.10
2022-09-05T03:32:45.332Z,17.96
2022-09-05T03:35:31.749Z,17.94
2022-09-05T03:38:53.413Z,17.92
2022-09-05T03:41:40.410Z,17.89
2022-09-05T03:44:24.944Z,17.97
2022-09-05T03:47:23.682Z,18.01
2022-09-05T03:52:56.367Z,18.06
2022-09-05T03:57:22.449Z,18.06
2022-09-05T03:57:25.623Z,18.07
2022-09-05T03:59:55.376Z,18.08
2022-09-05T04:07:02.013Z,18.04
2022-09-05T04:08:24.253Z,17.95
2022-09-05T04:08:41.267Z,17.95
2022-09-05T04:11:25.046Z,18.02
2022-09-05T04:13:59.504Z,17.88
2022-09-05T04:16:31.110Z,17.99
2022-09-05T04:19:09.581Z,17.92
2022-09-05T04:21:44.477Z,17.93
2022-09-05T04:24:27.283Z,18.09
2022-09-05T04:27:00.893Z,18.01
2022-09-05T04:29:49.456Z,18.13
2022-09-05T04:32:34.081Z,18.13
2022-09-05T04:35:20.051Z,18.13
2022-09-05T04:37:55.191Z,18.16
2022-09-05T04:40:58.264Z,18.16
2022-09-05T04:43:41.425Z,18.20
2022-09-05T04:46:25.231Z,18.28
2022-09-05T04:49:07.256Z,18.22
2022-09-05T04:52:00.925Z,18.23
2022-09-05T04:54:34.274Z,18.18
2022-09-05T04:57:13.792Z,18.26
2022-09-05T05:02:12.757Z,18.33
2022-09-05T05:06:08.546Z,18.31
2022-09-05T05:06:08.726Z,18.42
2022-09-05T05:08:43.169Z,18.51
2022-09-05T05:17:52.201Z,18.61
2022-09-05T05:18:10.724Z,18.75
2022-09-05T05:18:15.465Z,18.85
2022-09-05T05:20:40.748Z,19.01
2022-09-05T05:23:08.429Z,19.16
2022-09-05T05:25:44.593Z,19.29
2022-09-05T05:28:30.087Z,19.25
2022-09-05T05:31:09.309Z,19.52
2022-09-05T05:33:39.021Z,19.66
2022-09-05T05:36:09.827Z,19.90
2022-09-05T05:38:37.284Z,20.02
2022-09-05T05:41:13.883Z,20.15
2022-09-05T05:43:46.483Z,20.44
2022-09-05T05:46:33.382Z,20.58
2022-09-05T05:49:44.569Z,20.66
2022-09-05T05:52:46.750Z,20.93
2022-09-05T05:55:48.908Z,21.08
2022-09-05T05:58:44.673Z,21.25
2022-09-05T06:01:38.450Z,21.53
2022-09-05T06:04:30.615Z,21.78
2022-09-05T06:07:26.705Z,21.97
2022-09-05T06:14:50.494Z,22.13
2022-09-05T06:15:05.066Z,22.46
2022-09-05T06:16:34.342Z,22.50
2022-09-05T06:19:31.855Z,22.82
2022-09-05T06:22:33.411Z,22.91
2022-09-05T06:25:20.863Z,23.16
2022-09-05T06:28:27.592Z,23.19
2022-09-05T06:31:31.211Z,23.31
2022-09-05T06:34:33.282Z,23.54
2022-09-05T06:37:40.551Z,23.74
2022-09-05T06:40:31.475Z,23.96
2022-09-05T06:43:31.706Z,24.14
2022-09-05T06:46:09.246Z,24.51
2022-09-05T06:48:45.645Z,24.78
2022-09-05T06:51:23.510Z,24.77
2022-09-05T06:54:29.606Z,24.83
2022-09-05T06:57:48.142Z,24.93
2022-09-05T07:00:24.834Z,24.93
2022-09-05T07:03:07.440Z,25.07
2022-09-05T07:05:45.379Z,24.98
2022-09-05T07:08:35.660Z,25.05
2022-09-05T07:11:24.820Z,25.22
2022-09-05T07:14:04.462Z,25.48
2022-09-05T07:16:55.342Z,25.44
2022-09-05T07:19:31.576Z,25.61
2022-09-05T07:22:48.383Z,25.77
2022-09-05T07:25:26.126Z,25.86
2022-09-05T07:28:26.732Z,26.09
2022-09-05T07:30:50.159Z,26.05
2022-09-05T07:33:24.532Z,26.11
2022-09-05T07:35:52.644Z,26.42
2022-09-05T07:38:52.052Z,26.56
2022-09-05T07:41:22.606Z,26.50
2022-09-05T07:43:55.482Z,26.40
2022-09-05T07:46:26.585Z,26.56
2022-09-05T07:48:59.470Z,26.52
2022-09-05T07:56:47.566Z,26.61
2022-09-05T07:57:02.365Z,26.70
2022-09-05T07:57:32.499Z,26.84
2022-09-05T08:00:26.745Z,26.76
2022-09-05T08:02:59.469Z,26.87
2022-09-05T08:05:35.222Z,26.91
2022-09-05T08:08:08.648Z,26.89
2022-09-05T08:11:24.097Z,27.19
2022-09-05T08:13:52.359Z,27.21
2022-09-05T08:16:22.292Z,27.41
2022-09-05T08:19:00.837Z,27.36
2022-09-05T08:21:42.368Z,27.36
2022-09-05T08:24:21.490Z,27.40
2022-09-05T08:26:56.658Z,27.66
2022-09-05T08:29:32.441Z,27.51
2022-09-05T08:32:08.422Z,27.75
2022-09-05T08:34:59.489Z,27.64
2022-09-05T08:37:27.315Z,27.58
2022-09-05T08:40:11.687Z,27.64
2022-09-05T08:43:38.025Z,27.78
2022-09-05T08:46:40.020Z,27.83
2022-09-05T08:49:16.226Z,27.75
2022-09-05T08:52:02.444Z,27.72
2022-09-05T08:54:41.810Z,27.71
2022-09-05T08:57:24.646Z,27.60
2022-09-05T09:00:18.367Z,27.48
2022-09-05T09:03:15.885Z,27.55
2022-09-05T09:06:12.043Z,27.76
2022-09-05T09:08:54.400Z,27.78
2022-09-05T09:11:36.586Z,28.00
2022-09-05T09:14:30.527Z,28.02
2022-09-05T09:17:06.699Z,27.95
2022-09-05T09:20:06.591Z,27.81
2022-09-05T09:22:37.736Z,27.83
2022-09-05T09:25:18.521Z,27.71
2022-09-05T09:28:47.635Z,27.76
2022-09-05T09:30:57.536Z,27.85
2022-09-05T09:33:39.789Z,27.84
2022-09-05T09:36:25.944Z,28.05
2022-09-05T09:39:38.726Z,27.95
2022-09-05T09:42:33.795Z,28.21
2022-09-05T09:45:27.836Z,28.44
2022-09-05T09:48:16.554Z,28.63
2022-09-05T09:51:12.282Z,28.72
2022-09-05T09:53:52.542Z,28.76
2022-09-05T09:56:51.059Z,28.96
2022-09-05T09:59:34.724Z,29.19
2022-09-05T10:06:52.518Z,29.14
2022-09-05T10:10:39.741Z,29.19
2022-09-05T10:10:54.667Z,29.30
2022-09-05T10:11:56.162Z,29.02
2022-09-05T10:15:18.583Z,29.04
2022-09-05T10:18:25.875Z,28.75
2022-09-05T10:21:16.225Z,28.69
2022-09-05T10:24:14.332Z,28.69
2022-09-05T10:27:05.843Z,28.72
2022-09-05T10:29:42.581Z,28.96
2022-09-05T10:35:19.675Z,28.93
2022-09-05T10:35:21.196Z,28.87
2022-09-05T10:38:25.273Z,28.83
2022-09-05T10:41:20.371Z,28.97
2022-09-05T10:43:47.432Z,29.01
2022-09-05T10:46:50.111Z,29.08
2022-09-05T10:49:22.539Z,29.20
2022-09-05T10:52:19.442Z,29.23
2022-09-05T10:55:13.917Z,29.48
2022-09-05T10:58:07.328Z,29.54
2022-09-05T11:02:25.901Z,29.68
2022-09-05T11:03:53.965Z,29.70
2022-09-05T11:06:43.851Z,29.60
2022-09-05T11:09:21.881Z,29.57
2022-09-05T11:12:19.373Z,29.61
2022-09-05T11:14:52.304Z,29.62
2022-09-05T11:17:30.500Z,29.72
2022-09-05T11:20:06.064Z,29.37
2022-09-05T11:22:45.317Z,29.62
2022-09-05T11:25:20.018Z,29.78
2022-09-05T11:28:13.942Z,29.82
2022-09-05T11:30:46.163Z,29.83
2022-09-05T11:38:04.128Z,29.93
2022-09-05T11:39:55.848Z,29.80
2022-09-05T11:40:28.409Z,29.49
2022-09-05T11:42:53.359Z,29.31
2022-09-05T11:46:02.611Z,29.11
2022-09-05T11:49:07.851Z,29.04
2022-09-05T11:51:35.087Z,29.00
2022-09-05T11:54:08.438Z,28.86
2022-09-05T11:57:31.955Z,28.91
2022-09-05T12:00:33.687Z,28.82
2022-09-05T12:03:57.435Z,28.93
2022-09-05T12:06:48.092Z,29.09
2022-09-05T12:10:00.260Z,29.25
2022-09-05T12:12:41.669Z,29.20
2022-09-05T12:15:16.921Z,29.07
2022-09-05T12:18:24.347Z,29.07
2022-09-05T12:21:19.731Z,28.77
2022-09-05T12:25:16.115Z,28.59
2022-09-05T12:27:41.089Z,28.62
2022-09-05T12:30:01.071Z,28.50
2022-09-05T12:35:44.101Z,28.45
2022-09-05T12:36:11.620Z,28.30
2022-09-05T12:41:23.677Z,28.07
2022-09-05T12:41:36.066Z,28.35
2022-09-05T12:44:42.438Z,28.64
2022-09-05T12:47:18.823Z,28.69
2022-09-05T12:50:03.002Z,28.70
2022-09-05T12:52:44.853Z,28.82
2022-09-05T12:55:25.942Z,28.69
2022-09-05T13:02:26.406Z,28.71
2022-09-05T13:03:02.515Z,28.77
2022-09-05T13:04:18.191Z,28.81
2022-09-05T13:06:53.654Z,28.84
2022-09-05T13:12:57.733Z,28.67
2022-09-05T13:14:52.573Z,28.60
2022-09-05T13:15:42.082Z,28.54
2022-09-05T13:18:16.540Z,28.66
2022-09-05T13:20:51.379Z,28.76
2022-09-05T13:23:50.076Z,28.79
2022-09-05T13:26:43.096Z,28.95
2022-09-05T13:29:20.391Z,28.92
2022-09-05T13:37:59.481Z,29.22
2022-09-05T13:38:03.242Z,29.04
2022-09-05T13:38:10.558Z,28.92
2022-09-05T13:40:38.826Z,29.03
2022-09-05T13:43:14.731Z,28.96
2022-09-05T13:45:54.443Z,28.94
2022-09-05T13:48:28.321Z,28.77
2022-09-05T13:51:03.628Z,28.60
2022-09-05T13:53:43.909Z,28.65
2022-09-05T13:56:24.850Z,28.66
2022-09-05T13:59:16.609Z,28.78
2022-09-05T14:02:29.304Z,28.72
2022-09-05T14:05:26.212Z,28.56
2022-09-05T14:08:17.907Z,28.54
2022-09-05T14:11:31.353Z,28.32
2022-09-05T14:14:12.001Z,28.40
2022-09-05T14:16:54.303Z,28.43
2022-09-05T14:19:43.385Z,28.68
2022-09-05T14:22:28.952Z,28.64
2022-09-05T14:24:58.522Z,28.70
2022-09-05T14:27:32.173Z,28.58
2022-09-05T14:30:12.802Z,28.52
2022-09-05T14:37:41.619Z,28.63
2022-09-05T14:37:43.038Z,28.54
2022-09-05T14:40:29.208Z,28.63
2022-09-05T14:43:15.684Z,28.49
2022-09-05T14:46:02.606Z,28.40
2022-09-05T14:49:10.746Z,28.52
2022-09-05T14:51:39.547Z,28.58
2022-09-05T15:02:38.612Z,28.60
2022-09-05T15:02:52.811Z,28.48
2022-09-05T15:03:03.681Z,28.52
2022-09-05T15:05:40.965Z,28.62
2022-09-05T15:10:49.768Z,28.54
2022-09-05T15:12:18.701Z,28.51
2022-09-05T15:14:03.545Z,28.57
2022-09-05T15:16:35.468Z,28.51
2022-09-05T15:19:03.300Z,28.62
2022-09-05T15:21:40.544Z,28.56
2022-09-05T15:24:22.825Z,28.59
2022-09-05T15:26:52.672Z,28.48
2022-09-05T15:29:34.020Z,28.64
2022-09-05T15:32:25.963Z,28.56
2022-09-05T15:34:56.153Z,28.67
2022-09-05T15:37:36.981Z,28.56
2022-09-05T15:40:22.733Z,28.50
2022-09-05T15:42:51.450Z,28.52
2022-09-05T15:45:23.649Z,28.48
2022-09-05T15:48:01.950Z,28.60
2022-09-05T15:50:41.405Z,28.61
2022-09-05T15:53:13.576Z,28.47
2022-09-05T15:55:50.382Z,28.52
2022-09-05T15:58:28.471Z,28.38
2022-09-05T16:01:30.344Z,28.41
2022-09-05T16:08:54.241Z,28.52
2022-09-05T16:10:37.854Z,28.39
2022-09-05T16:10:48.806Z,28.31
2022-09-05T16:18:06.919Z,28.29
2022-09-05T16:23:16.526Z,28.25
2022-09-05T16:23:32.503Z,28.26
2022-09-05T16:24:24.663Z,28.15
2022-09-05T16:27:07.035Z,28.07
2022-09-05T16:29:44.523Z,27.87
2022-09-05T16:32:21.275Z,27.98
2022-09-05T16:35:03.452Z,27.91
2022-09-05T16:37:35.589Z,27.86
2022-09-05T16:40:18.082Z,27.79
2022-09-05T16:42:48.127Z,27.75
2022-09-05T16:45:48.141Z,27.79
2022-09-05T16:48:55.109Z,27.73
2022-09-05T16:51:38.932Z,27.69
2022-09-05T16:54:18.502Z,27.61
2022-09-05T16:56:52.502Z,27.52
2022-09-05T16:59:22.601Z,27.46
2022-09-05T17:01:56.057Z,27.35
2022-09-05T17:05:04.906Z,27.32
2022-09-05T17:07:58.057Z,27.28
2022-09-05T17:10:57.271Z,27.17
2022-09-05T17:13:37.797Z,27.02
2022-09-05T17:16:06.859Z,26.94
2022-09-05T17:18:35.634Z,26.83
2022-09-05T17:21:12.311Z,26.74
2022-09-05T17:29:15.352Z,26.62
2022-09-05T17:29:27.753Z,26.54
2022-09-05T17:32:47.116Z,26.35
2022-09-05T17:35:41.525Z,26.25
2022-09-05T17:38:17.974Z,26.11
2022-09-05T17:41:16.660Z,25.97
2022-09-05T17:43:58.018Z,25.81
2022-09-05T17:46:26.314Z,25.76
2022-09-05T17:49:19.471Z,25.68
2022-09-05T17:51:51.867Z,25.60
2022-09-05T17:54:30.830Z,25.39
2022-09-05T17:57:27.255Z,25.26
2022-09-05T18:00:45.442Z,25.11
2022-09-05T18:03:36.104Z,25.06
2022-09-05T18:06:06.585Z,24.97
2022-09-05T18:08:46.528Z,24.87
2022-09-05T18:11:25.449Z,24.81
2022-09-05T18:14:01.123Z,24.68
2022-09-05T18:17:35.196Z,24.57
2022-09-05T18:23:26.375Z,24.55
2022-09-05T18:26:23.320Z,24.43
2022-09-05T18:28:59.132Z,24.29
2022-09-05T18:31:53.304Z,24.27
2022-09-05T18:34:21.225Z,24.19
2022-09-05T18:36:53.643Z,24.13
2022-09-05T18:39:23.326Z,24.07
2022-09-05T18:42:26.451Z,24.06
2022-09-05T18:45:00.711Z,24.04
2022-09-05T18:47:58.954Z,23.96
2022-09-05T18:50:35.192Z,23.86
2022-09-05T18:53:10.039Z,23.94
2022-09-05T18:56:14.181Z,23.77
2022-09-05T18:59:09.521Z,23.75
2022-09-05T19:01:43.530Z,23.67
2022-09-05T19:04:39.388Z,23.65
2022-09-05T19:07:39.761Z,23.62
2022-09-05T19:10:35.731Z,23.49
2022-09-05T19:13:19.544Z,23.61
2022-09-05T19:15:59.894Z,23.51
2022-09-05T19:19:05.763Z,23.41
2022-09-05T19:21:34.212Z,23.37
2022-09-05T19:24:06.937Z,23.25
2022-09-05T19:26:34.755Z,23.28
2022-09-05T19:37:08.889Z,23.21
2022-09-05T19:37:15.286Z,23.28
2022-09-05T19:37:15.601Z,23.15
2022-09-05T19:37:44.581Z,23.18
2022-09-05T19:47:30.074Z,23.08
2022-09-05T19:47:35.188Z,23.19
2022-09-05T19:47:41.035Z,23.04
2022-09-05T19:49:19.844Z,23.08
2022-09-05T19:51:47.464Z,22.92
2022-09-05T19:54:24.123Z,22.98
2022-09-05T19:57:00.307Z,22.87
2022-09-05T19:59:34.659Z,22.81
2022-09-05T20:02:02.736Z,22.73
2022-09-05T20:04:44.180Z,22.77
2022-09-05T20:07:20.376Z,22.76
2022-09-05T20:09:50.584Z,22.66
2022-09-05T20:12:36.698Z,22.72
2022-09-05T20:15:21.399Z,22.62
2022-09-05T20:17:51.321Z,22.71
2022-09-05T20:20:28.172Z,22.59
2022-09-05T20:23:00.345Z,22.72
2022-09-05T20:25:38.176Z,22.64
2022-09-05T20:28:10.146Z,22.67
2022-09-05T20:30:42.534Z,22.65
2022-09-05T20:33:34.505Z,22.67
2022-09-05T20:41:11.624Z,22.70
2022-09-05T20:43:14.708Z,22.70
2022-09-05T20:43:27.335Z,22.70
2022-09-05T20:44:37.846Z,22.68
2022-09-05T20:52:19.013Z,22.64
2022-09-05T20:54:20.950Z,22.66
2022-09-05T20:54:27.601Z,22.74
2022-09-05T20:56:09.508Z,22.70
2022-09-05T20:58:38.543Z,22.54
2022-09-05T21:01:20.203Z,22.58
2022-09-05T21:04:04.158Z,22.53
2022-09-05T21:06:34.578Z,22.51
2022-09-05T21:09:08.256Z,22.35
2022-09-05T21:11:35.579Z,22.44
2022-09-05T21:14:04.700Z,22.31
2022-09-05T21:16:36.441Z,22.35
2022-09-05T21:19:04.217Z,22.45
2022-09-05T21:21:34.056Z,22.49
2022-09-05T21:24:17.705Z,22.55
2022-09-05T21:26:48.329Z,22.52
2022-09-05T21:29:25.573Z,22.40
2022-09-05T21:32:01.771Z,22.47
2022-09-05T21:34:33.215Z,22.46
2022-09-05T21:37:07.605Z,22.42
2022-09-05T21:39:39.976Z,22.50
2022-09-05T21:42:39.133Z,22.48
2022-09-05T21:47:47.785Z,22.41
2022-09-05T21:47:52.346Z,22.39
2022-09-05T21:50:31.417Z,22.35
2022-09-05T21:55:10.729Z,22.33
2022-09-05T21:59:18.645Z,22.29
2022-09-05T21:59:24.251Z,22.22
2022-09-05T22:01:50.930Z,22.19
2022-09-05T22:04:15.242Z,22.09
2022-09-05T22:06:44.776Z,22.14
2022-09-05T22:09:14.317Z,22.06
2022-09-05T22:11:42.139Z,22.09
2022-09-05T22:14:09.924Z,22.05
2022-09-05T22:16:37.672Z,22.03
2022-09-05T22:19:37.067Z,22.02
2022-09-05T22:22:15.881Z,22.02
2022-09-05T22:24:48.355Z,21.97
2022-09-05T22:27:20.220Z,21.91
2022-09-05T22:29:50.473Z,21.87
2022-09-05T22:32:28.529Z,21.92
2022-09-05T22:35:15.989Z,21.85
2022-09-05T22:38:00.193Z,21.85
2022-09-05T22:40:29.504Z,21.92
2022-09-05T22:42:57.962Z,21.86
2022-09-05T22:45:26.251Z,21.91
2022-09-05T22:47:54.058Z,21.83
2022-09-05T22:50:21.817Z,21.83
2022-09-05T22:52:57.656Z,21.88
2022-09-05T22:55:25.308Z,21.84
2022-09-05T22:57:52.644Z,21.82
2022-09-05T23:00:21.334Z,21.78
2022-09-05T23:02:52.383Z,21.74
2022-09-05T23:05:20.240Z,21.72
2022-09-05T23:07:47.575Z,21.74
2022-09-05T23:10:15.252Z,21.72
2022-09-05T23:12:42.584Z,21.69
2022-09-05T23:15:13.194Z,21.68
2022-09-05T23:17:41.371Z,21.70
2022-09-05T23:20:10.427Z,21.77
2022-09-05T23:22:38.910Z,21.76
2022-09-05T23:25:07.291Z,21.77
2022-09-05T23:27:36.725Z,21.79
2022-09-05T23:30:06.000Z,21.80
2022-09-05T23:32:33.887Z,21.80
2022-09-05T23:35:01.773Z,21.78
2022-09-05T23:37:29.185Z,21.83
2022-09-05T23:39:56.812Z,21.81
2022-09-05T23:42:24.163Z,21.79
2022-09-05T23:44:58.784Z,21.78
2022-09-05T23:47:27.215Z,21.82
2022-09-05T23:49:56.321Z,21.80
2022-09-05T23:52:23.677Z,21.82
2022-09-05T23:54:51.277Z,21.77
2022-09-05T23:57:22.938Z,21.69
2022-09-05T23:59:52.455Z,21.73
